createdAt,value
2022-10-05T00:01:33.034Z,8.13
2022-10-05T00:04:12.225Z,8.11
2022-10-05T00:06:40.918Z,8.04
2022-10-05T00:09:14.846Z,8.05
2022-10-05T00:11:43.968Z,8.02
2022-10-05T00:14:19.079Z,7.99
2022-10-05T00:16:49.884Z,7.94
2022-10-05T00:19:23.417Z,7.88
2022-10-05T00:21:52.067Z,7.82
2022-10-05T00:24:21.659Z,7.74
2022-10-05T00:26:55.392Z,7.77
2022-10-05T00:29:26.663Z,7.79
2022-10-05T00:31:56.773Z,7.79
2022-10-05T00:34:27.616Z,7.76
2022-10-05T00:36:56.246Z,7.77
2022-10-05T00:39:24.856Z,7.79
2022-10-05T00:42:15.016Z,7.75
2022-10-05T00:44:50.260Z,7.75
2022-10-05T00:47:33.457Z,7.72
2022-10-05T00:50:19.631Z,7.72
2022-10-05T00:53:03.196Z,7.75
2022-10-05T00:55:43.656Z,7.72
2022-10-05T00:58:23.865Z,7.62
2022-10-05T01:01:05.536Z,7.53
2022-10-05T01:03:49.140Z,7.46
2022-10-05T01:06:26.887Z,7.49
2022-10-05T01:09:06.979Z,7.47
2022-10-05T01:11:43.849Z,7.45
2022-10-05T01:14:21.888Z,7.39
2022-10-05T01:16:58.027Z,7.42
2022-10-05T01:19:58.380Z,7.38
2022-10-05T01:22:44.520Z,7.29
2022-10-05T01:25:25.140Z,7.25
2022-10-05T01:28:04.860Z,7.20
2022-10-05T01:30:39.696Z,7.20
2022-10-05T01:33:19.096Z,7.16
2022-10-05T01:35:56.995Z,7.20
2022-10-05T01:38:37.355Z,7.24
2022-10-05T01:41:19.761Z,7.27
2022-10-05T01:43:54.427Z,7.30
2022-10-05T01:46:32.376Z,7.36
2022-10-05T01:49:19.287Z,7.42
2022-10-05T01:52:00.380Z,7.46
2022-10-05T01:54:46.376Z,7.50
2022-10-05T01:57:23.918Z,7.43
2022-10-05T02:00:05.130Z,7.39
2022-10-05T02:02:48.951Z,7.42
2022-10-05T02:05:23.220Z,7.39
2022-10-05T02:07:58.927Z,7.32
2022-10-05T02:10:33.035Z,7.38
2022-10-05T02:13:10.900Z,7.39
2022-10-05T02:15:45.755Z,7.43
2022-10-05T02:18:21.157Z,7.46
2022-10-05T02:20:53.994Z,7.46
2022-10-05T02:23:27.350Z,7.44
2022-10-05T02:25:57.718Z,7.39
2022-10-05T02:28:33.697Z,7.43
2022-10-05T02:31:08.551Z,7.37
2022-10-05T02:33:37.826Z,7.35
2022-10-05T02:36:17.567Z,7.28
2022-10-05T02:39:00.755Z,7.25
2022-10-05T02:41:40.146Z,7.27
2022-10-05T02:44:16.889Z,7.28
2022-10-05T02:46:57.447Z,7.28
2022-10-05T02:49:34.960Z,7.30
2022-10-05T02:52:10.115Z,7.28
2022-10-05T02:54:49.050Z,7.28
2022-10-05T02:57:28.247Z,7.30
2022-10-05T03:00:07.408Z,7.32
2022-10-05T03:02:45.887Z,7.36
2022-10-05T03:05:22.115Z,7.38
2022-10-05T03:08:00.490Z,7.36
2022-10-05T03:10:38.686Z,7.26
2022-10-05T03:13:14.568Z,7.24
2022-10-05T03:16:04.699Z,7.21
2022-10-05T03:18:47.343Z,7.03
2022-10-05T03:21:32.398Z,6.95
2022-10-05T03:24:19.526Z,6.88
2022-10-05T03:26:58.067Z,6.80
2022-10-05T03:29:35.249Z,6.63
2022-10-05T03:32:19.419Z,6.56
2022-10-05T03:34:55.348Z,6.59
2022-10-05T03:37:35.478Z,6.70
2022-10-05T03:40:11.549Z,6.79
2022-10-05T03:43:00.190Z,6.87
2022-10-05T03:45:35.165Z,6.92
2022-10-05T03:48:09.978Z,6.97
2022-10-05T03:50:51.383Z,6.93
2022-10-05T03:53:22.117Z,6.98
2022-10-05T03:56:01.360Z,7.01
2022-10-05T03:58:40.689Z,7.04
2022-10-05T04:01:15.041Z,6.99
2022-10-05T04:03:47.339Z,7.05
2022-10-05T04:06:23.856Z,7.04
2022-10-05T04:08:58.609Z,7.04
2022-10-05T04:11:33.160Z,7.05
2022-10-05T04:14:07.672Z,7.05
2022-10-05T04:16:42.417Z,7.05
2022-10-05T04:19:16.515Z,7.04
2022-10-05T04:21:53.351Z,7.04
2022-10-05T04:24:30.623Z,7.06
2022-10-05T04:27:02.207Z,7.07
2022-10-05T04:29:39.880Z,7.08
2022-10-05T04:32:30.830Z,7.14
2022-10-05T04:35:20.239Z,7.14
2022-10-05T04:38:00.838Z,7.14
2022-10-05T04:40:42.881Z,7.12
2022-10-05T04:43:20.324Z,7.15
2022-10-05T04:46:15.213Z,7.16
2022-10-05T04:49:06.013Z,7.20
2022-10-05T04:51:42.109Z,7.22
2022-10-05T04:54:21.169Z,7.26
2022-10-05T04:56:56.538Z,7.27
2022-10-05T04:59:44.988Z,7.27
2022-10-05T05:02:25.350Z,7.32
2022-10-05T05:05:24.631Z,7.34
2022-10-05T05:08:18.499Z,7.39
2022-10-05T05:11:06.082Z,7.37
2022-10-05T05:13:51.991Z,7.35
2022-10-05T05:16:31.775Z,7.38
2022-10-05T05:19:11.174Z,7.41
2022-10-05T05:21:49.175Z,7.40
2022-10-05T05:24:29.583Z,7.39
2022-10-05T05:27:14.262Z,7.39
2022-10-05T05:29:54.260Z,7.34
2022-10-05T05:32:34.353Z,7.37
2022-10-05T05:35:24.980Z,7.41
2022-10-05T05:38:06.702Z,7.47
2022-10-05T05:40:41.811Z,7.51
2022-10-05T05:43:24.853Z,7.57
2022-10-05T05:46:01.214Z,7.60
2022-10-05T05:48:39.565Z,7.69
2022-10-05T05:51:15.714Z,7.76
2022-10-05T05:53:47.102Z,7.78
2022-10-05T05:56:21.555Z,7.82
2022-10-05T05:58:56.329Z,7.79
2022-10-05T06:01:34.058Z,7.75
2022-10-05T06:04:14.141Z,7.78
2022-10-05T06:06:48.789Z,7.87
2022-10-05T06:09:24.461Z,7.95
2022-10-05T06:12:07.323Z,8.07
2022-10-05T06:14:45.320Z,8.21
2022-10-05T06:17:19.241Z,8.27
2022-10-05T06:19:50.529Z,8.42
2022-10-05T06:22:24.280Z,8.52
2022-10-05T06:25:05.514Z,8.65
2022-10-05T06:27:39.122Z,8.74
2022-10-05T06:30:15.332Z,8.86
2022-10-05T06:33:10.054Z,8.97
2022-10-05T06:35:53.094Z,9.10
2022-10-05T06:38:39.184Z,9.17
2022-10-05T06:41:16.815Z,9.25
2022-10-05T06:43:58.274Z,9.39
2022-10-05T06:46:50.917Z,9.50
2022-10-05T06:49:54.704Z,9.65
2022-10-05T06:52:40.889Z,9.79
2022-10-05T06:55:19.816Z,9.85
2022-10-05T06:58:11.094Z,9.98
2022-10-05T07:00:44.198Z,10.00
2022-10-05T07:03:24.337Z,10.04
2022-10-05T07:06:02.394Z,10.12
2022-10-05T07:08:40.662Z,10.19
2022-10-05T07:11:22.124Z,10.33
2022-10-05T07:14:20.011Z,10.44
2022-10-05T07:17:17.592Z,10.52
2022-10-05T07:19:56.273Z,10.55
2022-10-05T07:23:02.997Z,10.65
2022-10-05T07:25:39.613Z,10.85
2022-10-05T07:28:14.813Z,10.97
2022-10-05T07:30:51.691Z,10.98
2022-10-05T07:33:26.354Z,11.08
2022-10-05T07:36:14.954Z,11.16
2022-10-05T07:38:49.413Z,11.20
2022-10-05T07:41:24.153Z,11.45
2022-10-05T07:44:02.458Z,11.61
2022-10-05T07:46:48.391Z,11.79
2022-10-05T07:49:27.626Z,11.90
2022-10-05T07:52:03.085Z,11.99
2022-10-05T07:54:39.522Z,12.07
2022-10-05T07:57:21.672Z,12.24
2022-10-05T07:59:58.064Z,12.33
2022-10-05T08:02:31.470Z,12.43
2022-10-05T08:05:05.014Z,12.52
2022-10-05T08:07:38.216Z,12.58
2022-10-05T08:10:24.305Z,12.60
2022-10-05T08:13:04.373Z,12.67
2022-10-05T08:15:38.460Z,12.84
2022-10-05T08:18:15.631Z,12.98
2022-10-05T08:20:48.104Z,13.11
2022-10-05T08:23:25.374Z,13.26
2022-10-05T08:26:07.015Z,13.42
2022-10-05T08:28:39.822Z,13.46
2022-10-05T08:31:22.976Z,13.44
2022-10-05T08:34:00.187Z,13.38
2022-10-05T08:36:45.023Z,13.28
2022-10-05T08:39:20.502Z,13.37
2022-10-05T08:42:11.181Z,13.61
2022-10-05T08:45:02.798Z,13.81
2022-10-05T08:47:48.224Z,14.07
2022-10-05T08:50:37.316Z,14.26
2022-10-05T08:53:22.135Z,14.41
2022-10-05T08:56:28.618Z,14.55
2022-10-05T08:59:26.534Z,14.74
2022-10-05T09:02:21.028Z,14.70
2022-10-05T09:05:18.744Z,14.56
2022-10-05T09:08:09.312Z,14.49
2022-10-05T09:11:02.653Z,14.48
2022-10-05T09:13:55.724Z,14.48
2022-10-05T09:16:46.155Z,14.50
2022-10-05T09:19:45.672Z,14.54
2022-10-05T09:22:24.392Z,14.55
2022-10-05T09:24:58.014Z,14.55
2022-10-05T09:27:37.776Z,14.63
2022-10-05T09:30:18.681Z,14.81
2022-10-05T09:33:17.773Z,14.98
2022-10-05T09:36:11.442Z,15.14
2022-10-05T09:39:05.560Z,15.38
2022-10-05T09:42:00.926Z,15.65
2022-10-05T09:45:01.178Z,15.90
2022-10-05T09:47:55.923Z,16.02
2022-10-05T09:50:50.067Z,16.13
2022-10-05T09:53:54.438Z,16.24
2022-10-05T09:56:52.117Z,16.32
2022-10-05T09:59:53.537Z,16.46
2022-10-05T10:02:42.445Z,16.55
2022-10-05T10:05:31.577Z,16.61
2022-10-05T10:08:16.176Z,16.67
2022-10-05T10:11:02.090Z,16.74
2022-10-05T10:14:01.185Z,16.71
2022-10-05T10:16:50.988Z,16.63
2022-10-05T10:19:47.099Z,16.58
2022-10-05T10:22:43.829Z,16.51
2022-10-05T10:25:40.892Z,16.50
2022-10-05T10:28:31.961Z,16.53
2022-10-05T10:31:25.066Z,16.55
2022-10-05T10:34:19.484Z,16.69
2022-10-05T10:37:16.526Z,16.75
2022-10-05T10:40:16.134Z,16.91
2022-10-05T10:43:04.310Z,17.03
2022-10-05T10:45:47.894Z,17.06
2022-10-05T10:48:40.985Z,17.04
2022-10-05T10:51:19.986Z,16.96
2022-10-05T10:54:12.594Z,16.95
2022-10-05T10:56:59.928Z,16.93
2022-10-05T10:59:57.127Z,16.94
2022-10-05T11:02:51.903Z,17.10
2022-10-05T11:05:41.043Z,17.17
2022-10-05T11:08:30.369Z,17.29
2022-10-05T11:11:17.940Z,17.40
2022-10-05T11:14:22.387Z,17.54
2022-10-05T11:17:19.338Z,17.58
2022-10-05T11:20:09.610Z,17.73
2022-10-05T11:22:51.405Z,17.82
2022-10-05T11:25:48.569Z,17.93
2022-10-05T11:28:46.737Z,17.97
2022-10-05T11:31:47.093Z,18.07
2022-10-05T11:34:41.864Z,18.14
2022-10-05T11:37:37.835Z,18.25
2022-10-05T11:40:33.387Z,18.22
2022-10-05T11:43:35.610Z,18.21
2022-10-05T11:46:12.185Z,18.19
2022-10-05T11:48:54.146Z,18.19
2022-10-05T11:51:35.549Z,18.15
2022-10-05T11:54:17.939Z,18.11
2022-10-05T11:56:54.656Z,18.10
2022-10-05T11:59:34.869Z,18.08
2022-10-05T12:02:15.450Z,17.97
2022-10-05T12:04:53.677Z,17.93
2022-10-05T12:07:31.349Z,17.87
2022-10-05T12:10:20.620Z,17.80
2022-10-05T12:13:14.993Z,17.79
2022-10-05T12:15:50.641Z,17.81
2022-10-05T12:18:26.727Z,17.88
2022-10-05T12:21:01.047Z,17.90
2022-10-05T12:23:37.401Z,17.93
2022-10-05T12:26:11.268Z,17.89
2022-10-05T12:28:47.668Z,17.93
2022-10-05T12:31:29.174Z,17.92
2022-10-05T12:34:06.687Z,17.86
2022-10-05T12:37:03.139Z,17.84
2022-10-05T12:39:40.917Z,17.82
2022-10-05T12:42:24.288Z,17.78
2022-10-05T12:45:25.767Z,17.78
2022-10-05T12:48:19.048Z,17.75
2022-10-05T12:50:51.475Z,17.75
2022-10-05T12:53:32.209Z,17.75
2022-10-05T12:56:10.894Z,17.75
2022-10-05T12:58:53.895Z,17.80
2022-10-05T13:01:35.455Z,17.80
2022-10-05T13:04:18.638Z,17.80
2022-10-05T13:06:57.917Z,17.78
2022-10-05T13:09:35.421Z,17.79
2022-10-05T13:12:11.098Z,17.79
2022-10-05T13:14:56.350Z,17.83
2022-10-05T13:17:35.676Z,17.83
2022-10-05T13:20:14.409Z,17.79
2022-10-05T13:22:46.939Z,17.77
2022-10-05T13:25:31.659Z,17.76
2022-10-05T13:28:17.151Z,17.74
2022-10-05T13:30:55.283Z,17.77
2022-10-05T13:33:38.574Z,17.77
2022-10-05T13:36:18.081Z,17.75
2022-10-05T13:38:57.211Z,17.78
2022-10-05T13:41:34.840Z,17.78
2022-10-05T13:44:18.430Z,17.79
2022-10-05T13:46:51.408Z,17.80
2022-10-05T13:49:29.151Z,17.78
2022-10-05T13:52:08.907Z,17.75
2022-10-05T13:54:53.818Z,17.72
2022-10-05T13:57:45.354Z,17.70
2022-10-05T14:00:24.141Z,17.67
2022-10-05T14:02:57.098Z,17.66
2022-10-05T14:05:28.661Z,17.64
2022-10-05T14:07:59.818Z,17.61
2022-10-05T14:10:36.758Z,17.63
2022-10-05T14:13:21.717Z,17.63
2022-10-05T14:16:05.958Z,17.57
2022-10-05T14:18:38.407Z,17.55
2022-10-05T14:21:22.353Z,17.53
2022-10-05T14:23:51.200Z,17.52
2022-10-05T14:26:34.671Z,17.48
2022-10-05T14:29:17.293Z,17.47
2022-10-05T14:31:52.774Z,17.39
2022-10-05T14:34:32.110Z,17.36
2022-10-05T14:37:10.380Z,17.32
2022-10-05T14:39:44.453Z,17.34
2022-10-05T14:42:19.945Z,17.30
2022-10-05T14:45:01.144Z,17.28
2022-10-05T14:47:32.693Z,17.27
2022-10-05T14:50:14.170Z,17.22
2022-10-05T14:52:51.623Z,17.20
2022-10-05T14:55:42.914Z,17.18
2022-10-05T14:58:30.002Z,17.15
2022-10-05T15:01:11.508Z,17.12
2022-10-05T15:03:49.322Z,17.10
2022-10-05T15:06:27.373Z,17.08
2022-10-05T15:09:29.842Z,17.07
2022-10-05T15:12:01.595Z,17.05
2022-10-05T15:14:33.771Z,17.00
2022-10-05T15:17:04.566Z,16.98
2022-10-05T15:19:47.202Z,16.98
2022-10-05T15:22:26.840Z,16.92
2022-10-05T15:25:01.905Z,16.89
2022-10-05T15:27:38.490Z,16.85
2022-10-05T15:30:13.073Z,16.82
2022-10-05T15:32:57.892Z,16.83
2022-10-05T15:35:46.745Z,16.77
2022-10-05T15:38:23.164Z,16.72
2022-10-05T15:41:03.829Z,16.70
2022-10-05T15:43:46.929Z,16.67
2022-10-05T15:46:19.512Z,16.61
2022-10-05T15:48:56.100Z,16.56
2022-10-05T15:51:37.836Z,16.50
2022-10-05T15:54:21.641Z,16.45
2022-10-05T15:57:01.072Z,16.38
2022-10-05T15:59:35.889Z,16.32
2022-10-05T16:02:15.836Z,16.28
2022-10-05T16:04:53.560Z,16.19
2022-10-05T16:07:38.982Z,16.21
2022-10-05T16:10:17.553Z,16.12
2022-10-05T16:13:05.483Z,15.95
2022-10-05T16:15:39.785Z,15.82
2022-10-05T16:18:32.381Z,15.78
2022-10-05T16:21:11.135Z,15.81
2022-10-05T16:23:52.833Z,15.79
2022-10-05T16:26:34.082Z,15.69
2022-10-05T16:29:10.690Z,15.59
2022-10-05T16:31:47.451Z,15.48
2022-10-05T16:34:31.152Z,15.41
2022-10-05T16:37:10.040Z,15.35
2022-10-05T16:39:53.282Z,15.22
2022-10-05T16:42:42.196Z,15.08
2022-10-05T16:45:29.498Z,14.97
2022-10-05T16:48:06.511Z,15.02
2022-10-05T16:50:44.919Z,14.92
2022-10-05T16:53:19.304Z,14.76
2022-10-05T16:55:53.610Z,14.68
2022-10-05T16:58:27.864Z,14.60
2022-10-05T17:01:12.924Z,14.55
2022-10-05T17:03:55.004Z,14.45
2022-10-05T17:06:44.293Z,14.37
2022-10-05T17:09:42.079Z,14.26
2022-10-05T17:12:31.283Z,14.13
2022-10-05T17:15:13.212Z,14.02
2022-10-05T17:18:05.172Z,13.94
2022-10-05T17:20:46.146Z,13.92
2022-10-05T17:23:30.529Z,13.92
2022-10-05T17:26:17.469Z,13.89
2022-10-05T17:29:01.249Z,13.84
2022-10-05T17:31:32.763Z,13.81
2022-10-05T17:34:27.790Z,13.70
2022-10-05T17:37:00.026Z,13.67
2022-10-05T17:39:50.406Z,13.62
2022-10-05T17:42:47.934Z,13.58
2022-10-05T17:45:38.385Z,13.51
2022-10-05T17:48:11.050Z,13.45
2022-10-05T17:50:54.204Z,13.41
2022-10-05T17:53:33.803Z,13.37
2022-10-05T17:56:05.711Z,13.29
2022-10-05T17:59:02.833Z,13.28
2022-10-05T18:01:37.172Z,13.28
2022-10-05T18:04:30.669Z,13.28
2022-10-05T18:07:06.833Z,13.25
2022-10-05T18:09:37.791Z,13.28
2022-10-05T18:12:37.222Z,13.28
2022-10-05T18:15:45.420Z,13.22
2022-10-05T18:18:35.819Z,13.14
2022-10-05T18:21:24.655Z,13.11
2022-10-05T18:24:17.620Z,13.13
2022-10-05T18:26:59.873Z,13.12
2022-10-05T18:29:57.952Z,13.09
2022-10-05T18:32:36.953Z,13.08
2022-10-05T18:35:11.636Z,13.08
2022-10-05T18:37:49.489Z,13.06
2022-10-05T18:40:31.903Z,13.04
2022-10-05T18:43:13.747Z,13.00
2022-10-05T18:46:01.199Z,12.98
2022-10-05T18:48:39.002Z,12.96
2022-10-05T18:51:20.162Z,12.92
2022-10-05T18:54:03.262Z,12.85
2022-10-05T18:56:39.373Z,12.74
2022-10-05T18:59:25.895Z,12.74
2022-10-05T19:02:07.879Z,12.73
2022-10-05T19:04:50.610Z,12.70
2022-10-05T19:07:32.821Z,12.63
2022-10-05T19:10:13.080Z,12.54
2022-10-05T19:12:58.343Z,12.54
2022-10-05T19:15:35.629Z,12.48
2022-10-05T19:18:34.923Z,12.46
2022-10-05T19:21:14.782Z,12.43
2022-10-05T19:24:01.443Z,12.38
2022-10-05T19:26:48.861Z,12.34
2022-10-05T19:29:34.560Z,12.34
2022-10-05T19:32:09.273Z,12.29
2022-10-05T19:34:55.543Z,12.33
2022-10-05T19:37:36.104Z,12.31
2022-10-05T19:40:13.842Z,12.30
2022-10-05T19:43:02.769Z,12.29
2022-10-05T19:45:38.826Z,12.26
2022-10-05T19:48:20.623Z,12.27
2022-10-05T19:50:58.710Z,12.24
2022-10-05T19:53:31.257Z,12.18
2022-10-05T19:56:20.358Z,12.17
2022-10-05T19:58:50.251Z,12.13
2022-10-05T20:01:27.706Z,12.13
2022-10-05T20:03:57.879Z,12.02
2022-10-05T20:06:27.229Z,11.98
2022-10-05T20:09:00.414Z,11.97
2022-10-05T20:11:29.814Z,11.96
2022-10-05T20:14:19.244Z,11.94
2022-10-05T20:16:59.249Z,11.95
2022-10-05T20:19:45.879Z,11.90
2022-10-05T20:22:34.406Z,11.92
2022-10-05T20:25:05.929Z,11.90
2022-10-05T20:27:46.712Z,11.83
2022-10-05T20:30:18.529Z,11.81
2022-10-05T20:32:50.625Z,11.70
2022-10-05T20:35:22.337Z,11.71
2022-10-05T20:37:51.291Z,11.69
2022-10-05T20:40:21.545Z,11.60
2022-10-05T20:42:50.540Z,11.51
2022-10-05T20:45:19.151Z,11.48
2022-10-05T20:47:49.170Z,11.44
2022-10-05T20:50:17.903Z,11.42
2022-10-05T20:52:46.481Z,11.42
2022-10-05T20:55:15.050Z,11.37
2022-10-05T20:57:43.669Z,11.34
2022-10-05T21:00:14.390Z,11.35
2022-10-05T21:02:43.073Z,11.40
2022-10-05T21:05:13.142Z,11.33
2022-10-05T21:07:42.022Z,11.26
2022-10-05T21:10:11.025Z,11.28
2022-10-05T21:12:39.641Z,11.29
2022-10-05T21:15:10.563Z,11.30
2022-10-05T21:17:39.332Z,11.30
2022-10-05T21:20:11.561Z,11.25
2022-10-05T21:22:43.284Z,11.20
2022-10-05T21:25:11.953Z,11.19
2022-10-05T21:27:41.499Z,11.16
2022-10-05T21:30:10.599Z,11.13
2022-10-05T21:32:43.944Z,11.10
2022-10-05T21:35:13.185Z,11.12
2022-10-05T21:37:43.202Z,11.12
2022-10-05T21:40:12.424Z,11.11
2022-10-05T21:42:41.043Z,11.13
2022-10-05T21:45:11.061Z,11.11
2022-10-05T21:47:39.689Z,11.10
2022-10-05T21:50:09.921Z,11.11
2022-10-05T21:52:38.683Z,11.12
2022-10-05T21:55:09.814Z,11.10
2022-10-05T21:57:39.434Z,11.10
2022-10-05T22:00:09.813Z,11.06
2022-10-05T22:02:38.594Z,11.05
2022-10-05T22:05:07.513Z,11.05
2022-10-05T22:07:36.354Z,11.05
2022-10-05T22:10:05.916Z,11.03
2022-10-05T22:12:36.064Z,10.93
2022-10-05T22:15:06.522Z,10.92
2022-10-05T22:17:36.335Z,10.89
2022-10-05T22:20:05.033Z,10.88
2022-10-05T22:22:33.666Z,10.84
2022-10-05T22:25:02.276Z,10.81
2022-10-05T22:27:32.035Z,10.84
2022-10-05T22:30:04.092Z,10.84
2022-10-05T22:32:32.747Z,10.77
2022-10-05T22:35:01.345Z,10.73
2022-10-05T22:37:30.346Z,10.70
2022-10-05T22:39:59.015Z,10.67
2022-10-05T22:42:28.047Z,10.69
2022-10-05T22:44:57.037Z,10.69
2022-10-05T22:47:27.313Z,10.66
2022-10-05T22:49:55.904Z,10.63
2022-10-05T22:52:24.634Z,10.54
2022-10-05T22:54:53.446Z,10.57
2022-10-05T22:57:22.175Z,10.58
2022-10-05T22:59:50.937Z,10.55
2022-10-05T23:02:20.079Z,10.56
2022-10-05T23:04:50.244Z,10.55
2022-10-05T23:07:19.085Z,10.53
2022-10-05T23:09:47.676Z,10.56
2022-10-05T23:12:16.369Z,10.58
2022-10-05T23:14:44.938Z,10.53
2022-10-05T23:17:13.602Z,10.51
2022-10-05T23:19:42.190Z,10.51
2022-10-05T23:22:12.280Z,10.52
2022-10-05T23:24:40.927Z,10.48
2022-10-05T23:27:09.559Z,10.48
2022-10-05T23:29:38.297Z,10.47
2022-10-05T23:32:08.400Z,10.48
2022-10-05T23:34:37.018Z,10.46
2022-10-05T23:37:05.876Z,10.43
2022-10-05T23:39:35.802Z,10.36
2022-10-05T23:42:05.331Z,10.32
2022-10-05T23:44:34.047Z,10.31
2022-10-05T23:47:02.550Z,10.28
2022-10-05T23:49:31.118Z,10.27
2022-10-05T23:52:00.006Z,10.25
2022-10-05T23:54:28.545Z,10.26
2022-10-05T23:56:58.498Z,10.23
2022-10-05T23:59:27.168Z,10.19
